Time;durP1;ratioP1;P1;durP2;ratioP2;P2;SDS_P1;SDS_P2;PMS_P1;PMS_P2;Temp;Humidity;BMP_temperature;BMP_pressure;BME280_temperature;BME280_humidity;BME280_pressure;Samples;Min_cycle;Max_cycle;Signal;HPM_P1;HPM_P2
2022/03/17 00:00:21;;;;;;;19.25;17.35;;;;;;;10.82;60.81;101385.06;5036137;27;20036;-71
2022/03/17 00:02:46;;;;;;;19.52;17.70;;;;;;;10.80;60.81;101390.47;5033712;27;20960;-71
2022/03/17 00:05:12;;;;;;;19.48;17.58;;;;;;;10.92;59.71;101390.47;5034353;27;20017;-71
2022/03/17 00:07:41;;;;;;;18.50;16.73;;;;;;;10.87;60.08;101398.78;5003632;27;20136;-71
2022/03/17 00:10:15;;;;;;;19.50;17.60;;;;;;;10.88;59.90;101387.22;5014713;27;20025;-71
2022/03/17 00:12:45;;;;;;;19.00;17.20;;;;;;;10.87;59.91;101388.19;5036661;27;20013;-71
2022/03/17 00:15:10;;;;;;;19.95;17.20;;;;;;;10.89;60.25;101398.66;5018705;27;20081;-72
2022/03/17 00:17:36;;;;;;;18.25;16.55;;;;;;;10.85;60.50;101416.59;5000252;27;20036;-71
2022/03/17 00:20:02;;;;;;;19.55;17.58;;;;;;;10.86;60.32;101405.03;5020952;27;20040;-71
2022/03/17 00:22:27;;;;;;;19.13;17.23;;;;;;;10.79;60.93;101409.97;5039744;27;20129;-71
2022/03/17 00:24:54;;;;;;;19.48;17.67;;;;;;;10.84;60.14;101399.00;5035493;27;20848;-71
2022/03/17 00:27:20;;;;;;;18.65;16.95;;;;;;;10.82;60.16;101411.53;5034981;27;20996;-71
2022/03/17 00:29:46;;;;;;;19.88;17.90;;;;;;;10.93;59.91;101405.41;5035330;27;20025;-71
2022/03/17 00:32:11;;;;;;;18.98;17.17;;;;;;;10.87;60.12;101403.22;5037092;27;20132;-72
2022/03/17 00:37:23;;;;;;;19.33;17.55;;;;;;;10.78;60.66;101404.81;5037800;27;20252;-71
2022/03/17 00:39:49;;;;;;;19.80;17.95;;;;;;;10.85;60.32;101402.50;5033406;27;20009;-71
2022/03/17 00:42:15;;;;;;;19.33;17.30;;;;;;;10.80;60.36;101408.16;5018057;27;20064;-71
2022/03/17 00:44:41;;;;;;;19.35;17.38;;;;;;;10.75;60.78;101405.06;5016371;27;20915;-71
2022/03/17 00:47:07;;;;;;;21.70;17.90;;;;;;;10.82;60.33;101411.53;5036208;27;20517;-73
2022/03/17 00:49:32;;;;;;;19.33;17.33;;;;;;;10.81;60.41;101410.69;5019539;27;20858;-71
2022/03/17 00:51:58;;;;;;;19.20;17.50;;;;;;;10.80;60.72;101418.75;5033575;27;20013;-71
2022/03/17 00:54:23;;;;;;;19.23;17.42;;;;;;;10.76;60.74;101422.59;5019747;27;20032;-70
2022/03/17 00:56:48;;;;;;;19.10;17.10;;;;;;;10.78;60.57;101416.22;5018843;27;20323;-71
2022/03/17 00:59:14;;;;;;;19.48;17.48;;;;;;;10.73;60.57;101414.91;5034482;27;20084;-71
2022/03/17 01:01:39;;;;;;;19.17;17.33;;;;;;;10.71;61.08;101412.38;5037142;27;20029;-70
2022/03/17 01:04:04;;;;;;;20.08;18.08;;;;;;;10.66;60.65;101409.28;5019495;27;20173;-71
2022/03/17 01:06:30;;;;;;;18.88;17.10;;;;;;;10.62;61.36;101413.94;5036931;27;20024;-71
2022/03/17 01:08:55;;;;;;;19.95;17.83;;;;;;;10.61;60.71;101404.31;5002257;27;20339;-71
2022/03/17 01:11:21;;;;;;;19.35;17.55;;;;;;;10.65;60.85;101411.06;5015080;27;20028;-71
2022/03/17 01:13:46;;;;;;;20.42;18.05;;;;;;;10.65;60.93;101416.34;5014744;27;20025;-72
2022/03/17 01:16:11;;;;;;;19.42;17.63;;;;;;;10.67;60.75;101412.75;5017491;27;20577;-71
2022/03/17 01:18:37;;;;;;;19.58;17.77;;;;;;;10.68;60.67;101414.44;5032590;27;20050;-71
2022/03/17 01:21:02;;;;;;;19.20;17.30;;;;;;;10.75;60.65;101415.63;5030812;27;20248;-71
2022/03/17 01:23:27;;;;;;;19.67;17.77;;;;;;;10.67;60.96;101403.00;5032028;27;20008;-70
2022/03/17 01:25:53;;;;;;;20.27;18.33;;;;;;;10.67;61.10;101400.34;5029894;27;20017;-70
2022/03/17 01:28:18;;;;;;;20.13;18.13;;;;;;;10.65;61.16;101402.28;5015068;27;20032;-70
2022/03/17 01:30:44;;;;;;;19.15;17.25;;;;;;;10.65;60.65;101400.47;5016089;28;20901;-70
2022/03/17 01:33:09;;;;;;;19.90;18.00;;;;;;;10.58;61.23;101407.22;5032626;28;20645;-70
2022/03/17 01:35:34;;;;;;;20.17;18.17;;;;;;;10.62;61.02;101408.66;5034889;27;20025;-71
2022/03/17 01:38:00;;;;;;;20.55;18.65;;;;;;;10.61;60.95;101403.50;5008799;28;20017;-70
2022/03/17 01:40:25;;;;;;;20.30;18.40;;;;;;;10.56;60.97;101405.66;5015314;27;20029;-70
2022/03/17 01:42:50;;;;;;;20.42;18.52;;;;;;;10.60;61.19;101397.38;5037731;28;20518;-70
2022/03/17 01:45:16;;;;;;;20.42;18.42;;;;;;;10.59;61.33;101406.25;5017914;27;20124;-70
2022/03/17 01:47:43;;;;;;;20.27;18.42;;;;;;;10.61;61.17;101403.50;5034721;27;20542;-71
2022/03/17 01:50:14;;;;;;;21.05;18.35;;;;;;;10.60;61.29;101407.09;5050874;27;20039;-70
2022/03/17 01:52:40;;;;;;;20.67;18.67;;;;;;;10.53;61.02;101406.72;5054202;27;20283;-70
2022/03/17 01:55:05;;;;;;;20.20;18.20;;;;;;;10.56;61.46;101401.22;5046637;27;20359;-70
2022/03/17 01:57:31;;;;;;;20.67;18.67;;;;;;;10.57;60.83;101400.22;5035326;27;20044;-70
2022/03/17 01:59:57;;;;;;;21.10;19.10;;;;;;;10.60;60.63;101394.72;5038154;27;20281;-70
2022/03/17 02:02:24;;;;;;;21.58;19.58;;;;;;;10.58;61.13;101391.34;5038968;27;20024;-70
2022/03/17 02:04:50;;;;;;;20.85;18.95;;;;;;;10.53;61.22;101390.84;5038096;27;20036;-71
2022/03/17 02:07:15;;;;;;;21.05;18.92;;;;;;;10.49;61.02;101389.41;5040923;27;20312;-70
2022/03/17 02:09:42;;;;;;;21.90;19.73;;;;;;;10.55;61.37;101391.59;4997624;28;20086;-71
2022/03/17 02:15:04;;;;;;;23.25;19.55;;;;;;;10.50;61.62;101401.69;5015091;28;20093;-70
2022/03/17 02:17:33;;;;;;;21.75;19.58;;;;;;;10.52;61.00;101398.91;5012065;28;20172;-70
2022/03/17 02:19:59;;;;;;;21.85;19.75;;;;;;;10.54;61.26;101394.34;4998756;28;20144;-70
2022/03/17 02:22:25;;;;;;;22.23;19.65;;;;;;;10.54;61.42;101397.00;4996042;28;20728;-70
2022/03/17 02:27:41;;;;;;;22.63;20.15;;;;;;;10.50;60.99;101401.69;5025695;27;20502;-72
2022/03/17 02:30:09;;;;;;;22.13;19.85;;;;;;;10.49;61.39;101394.69;5014492;27;20925;-70
2022/03/17 02:32:35;;;;;;;21.63;19.52;;;;;;;10.42;61.76;101393.50;5016471;28;20030;-71
2022/03/17 02:35:09;;;;;;;22.13;19.92;;;;;;;10.49;61.64;101394.69;5015622;28;20650;-71
2022/03/17 02:37:34;;;;;;;23.13;20.80;;;;;;;10.46;61.61;101387.84;4991007;28;20033;-71
2022/03/17 02:40:00;;;;;;;22.05;19.95;;;;;;;10.51;61.39;101395.44;4996103;28;20033;-70
2022/03/17 02:42:30;;;;;;;21.98;19.88;;;;;;;10.47;61.83;101388.69;5018387;27;20183;-70
2022/03/17 02:44:56;;;;;;;21.70;19.60;;;;;;;10.53;61.46;101388.19;5035409;27;20025;-70
2022/03/17 02:47:21;;;;;;;21.98;19.73;;;;;;;10.43;61.74;101384.59;5033454;27;20013;-70
2022/03/17 02:49:47;;;;;;;22.25;20.13;;;;;;;10.42;61.67;101388.19;5035809;27;20519;-71
2022/03/17 02:52:12;;;;;;;21.83;19.73;;;;;;;10.42;61.42;101388.19;5032413;27;20047;-71
2022/03/17 02:54:38;;;;;;;23.05;20.73;;;;;;;10.41;61.45;101392.66;5015870;27;20017;-71
2022/03/17 02:57:06;;;;;;;22.55;20.42;;;;;;;10.40;61.60;101390.97;5032812;27;20036;-71
2022/03/17 02:59:31;;;;;;;22.63;20.52;;;;;;;10.39;61.60;101394.59;5035429;27;20041;-70
2022/03/17 03:01:57;;;;;;;22.73;20.38;;;;;;;10.50;61.77;101395.56;5032588;27;19997;-71
2022/03/17 03:04:23;;;;;;;21.73;19.63;;;;;;;10.60;61.07;101401.78;5036033;27;20086;-70
2022/03/17 03:06:48;;;;;;;22.10;20.02;;;;;;;10.61;60.86;101403.50;5035776;27;20013;-71
2022/03/17 03:09:14;;;;;;;21.98;19.88;;;;;;;10.56;61.17;101409.16;5035041;27;20195;-71
2022/03/17 03:11:39;;;;;;;21.88;19.67;;;;;;;10.48;61.53;101408.91;5034338;27;20021;-70
2022/03/17 03:14:07;;;;;;;21.95;19.75;;;;;;;10.47;61.54;101412.50;5037139;27;20856;-70
2022/03/17 03:16:33;;;;;;;22.15;20.05;;;;;;;10.50;61.48;101406.97;5034863;27;20423;-72
2022/03/17 03:18:58;;;;;;;22.60;20.40;;;;;;;10.49;61.73;101413.22;5036589;27;20138;-70
2022/03/17 03:21:23;;;;;;;23.33;20.92;;;;;;;10.53;61.18;101406.72;5055062;27;20149;-70
2022/03/17 03:23:49;;;;;;;23.33;21.13;;;;;;;10.48;61.81;101409.75;5036115;27;20095;-70
2022/03/17 03:26:15;;;;;;;22.20;20.20;;;;;;;10.50;61.82;101416.72;5034241;27;20021;-70
2022/03/17 03:28:41;;;;;;;22.75;20.60;;;;;;;10.47;61.93;101420.44;5034682;27;20068;-71
2022/03/17 03:31:08;;;;;;;23.30;21.10;;;;;;;10.43;61.59;101424.28;5035181;27;20088;-70
2022/03/17 03:33:33;;;;;;;23.45;20.95;;;;;;;10.44;62.24;101418.88;5034907;27;20742;-70
2022/03/17 03:38:42;;;;;;;23.58;21.15;;;;;;;10.43;61.81;101416.34;5020036;27;20101;-70
2022/03/17 03:41:08;;;;;;;24.05;21.65;;;;;;;10.41;62.06;101418.28;5001401;27;20377;-70
2022/03/17 03:43:33;;;;;;;23.52;21.15;;;;;;;10.38;62.31;101418.50;5036233;27;20020;-71
2022/03/17 03:45:59;;;;;;;24.23;21.75;;;;;;;10.37;62.76;101415.03;5034861;27;20932;-71
2022/03/17 03:48:24;;;;;;;23.60;21.33;;;;;;;10.44;62.01;101423.34;5039126;27;20009;-70
2022/03/17 03:50:50;;;;;;;22.70;20.55;;;;;;;10.39;63.09;101421.06;5041368;27;20234;-70
2022/03/17 03:53:15;;;;;;;23.58;21.30;;;;;;;10.34;63.71;101441.72;5033466;27;20856;-71
2022/03/17 03:55:40;;;;;;;23.85;21.55;;;;;;;10.35;63.58;101443.41;5016543;27;20024;-70
2022/03/17 03:58:06;;;;;;;23.92;21.63;;;;;;;10.34;63.92;101456.72;5014235;28;20335;-70
2022/03/17 04:00:32;;;;;;;25.33;22.70;;;;;;;10.32;63.83;101451.53;4996889;28;20017;-71
2022/03/17 04:02:58;;;;;;;24.85;22.25;;;;;;;10.30;63.92;101464.03;5014514;27;20386;-70
2022/03/17 04:05:27;;;;;;;23.95;21.55;;;;;;;10.33;63.42;101469.09;5000055;27;20792;-70
2022/03/17 04:07:54;;;;;;;24.15;21.67;;;;;;;10.27;64.41;101470.41;5010287;27;20020;-70
2022/03/17 04:10:19;;;;;;;23.65;21.35;;;;;;;10.28;63.97;101477.38;4996039;27;20029;-70
2022/03/17 04:12:44;;;;;;;22.73;20.63;;;;;;;10.27;64.04;101475.69;5006321;27;20020;-70
2022/03/17 04:15:10;;;;;;;23.92;21.42;;;;;;;10.28;64.09;101477.38;5013587;27;20017;-70
2022/03/17 04:17:35;;;;;;;23.73;21.40;;;;;;;10.30;63.63;101486.03;5016115;28;20126;-70
2022/03/17 04:20:01;;;;;;;25.10;21.98;;;;;;;10.28;63.95;101487.97;5018399;27;20033;-70
2022/03/17 04:22:26;;;;;;;24.38;21.88;;;;;;;10.33;64.44;101487.63;5036156;27;20793;-70
2022/03/17 04:24:52;;;;;;;24.50;21.95;;;;;;;10.24;64.67;101489.16;5015352;27;20372;-71
2022/03/17 04:27:17;;;;;;;24.63;22.13;;;;;;;10.26;65.34;101497.81;5014509;27;20024;-71
2022/03/17 04:29:42;;;;;;;24.98;22.48;;;;;;;10.25;66.31;101495.28;5034427;27;20037;-70
2022/03/17 04:32:09;;;;;;;24.60;22.27;;;;;;;10.26;67.25;101505.75;5013692;27;20060;-71
2022/03/17 04:34:34;;;;;;;24.63;22.23;;;;;;;10.19;67.93;101512.47;5033495;27;20026;-71
2022/03/17 04:37:00;;;;;;;24.85;22.55;;;;;;;10.12;67.68;101513.88;5032503;27;20237;-70
2022/03/17 04:39:26;;;;;;;25.95;23.45;;;;;;;10.08;68.32;101521.22;5030216;27;20043;-70
2022/03/17 04:41:51;;;;;;;25.85;23.35;;;;;;;10.00;69.01;101522.72;5025794;27;20002;-70
2022/03/17 04:44:17;;;;;;;25.67;23.08;;;;;;;9.96;69.58;101525.59;5012681;27;20020;-71
2022/03/17 04:46:42;;;;;;;26.65;24.05;;;;;;;9.92;69.95;101533.88;5034576;27;20948;-70
2022/03/17 04:49:08;;;;;;;26.42;23.73;;;;;;;9.87;70.03;101538.66;5033658;27;20189;-71
2022/03/17 04:51:34;;;;;;;25.58;23.17;;;;;;;9.88;71.50;101538.53;5015282;27;20121;-71
2022/03/17 04:54:00;;;;;;;25.85;23.38;;;;;;;9.91;72.02;101546.28;5014403;27;20021;-71
2022/03/17 04:56:25;;;;;;;26.40;23.85;;;;;;;9.92;71.83;101555.88;4987891;27;20422;-70
2022/03/17 04:58:50;;;;;;;26.42;23.77;;;;;;;10.00;72.63;101560.59;5013884;27;20854;-70
2022/03/17 05:01:16;;;;;;;26.23;23.67;;;;;;;9.88;73.17;101562.31;5031549;27;20852;-71
2022/03/17 05:03:42;;;;;;;27.23;24.52;;;;;;;9.85;74.08;101570.50;5030074;27;20013;-71
2022/03/17 05:06:10;;;;;;;27.88;25.00;;;;;;;9.78;74.96;101575.38;4995118;27;20258;-71
2022/03/17 05:08:36;;;;;;;28.08;25.30;;;;;;;9.79;75.86;101581.53;5011377;27;20268;-71
2022/03/17 05:11:02;;;;;;;29.02;26.05;;;;;;;9.72;77.16;101593.50;5028383;27;20784;-73
2022/03/17 05:13:28;;;;;;;28.90;26.10;;;;;;;9.72;76.92;101596.97;5009345;27;21022;-71
2022/03/17 05:15:53;;;;;;;30.10;27.02;;;;;;;9.68;77.59;101597.31;5008626;27;20128;-71
2022/03/17 05:18:19;;;;;;;29.92;26.83;;;;;;;9.59;77.72;101597.00;4997150;27;20045;-71
2022/03/17 05:20:44;;;;;;;29.85;26.67;;;;;;;9.60;78.87;101596.06;5026020;27;20056;-71
2022/03/17 05:23:11;;;;;;;31.02;27.85;;;;;;;9.44;80.50;101603.38;5010896;27;20009;-72
2022/03/17 05:25:39;;;;;;;32.05;28.23;;;;;;;9.41;81.48;101598.31;5005463;27;20041;-72
2022/03/17 05:28:05;;;;;;;30.52;27.33;;;;;;;9.37;83.17;101612.69;5026266;27;20676;-71
2022/03/17 05:30:31;;;;;;;31.70;28.42;;;;;;;9.31;84.57;101611.31;4991334;27;20044;-72
2022/03/17 05:32:56;;;;;;;31.23;27.85;;;;;;;9.28;84.67;101619.47;5027201;27;20954;-71
2022/03/17 05:35:22;;;;;;;31.83;28.52;;;;;;;9.22;86.58;101626.00;5032363;27;20080;-71
2022/03/17 05:37:48;;;;;;;31.77;28.48;;;;;;;9.19;86.52;101631.47;5025839;27;20160;-71
2022/03/17 05:40:15;;;;;;;32.13;28.83;;;;;;;9.17;85.91;101636.03;5032999;27;20516;-72
2022/03/17 05:42:41;;;;;;;33.25;29.83;;;;;;;9.20;86.45;101635.81;5033723;27;20009;-73
2022/03/17 05:45:07;;;;;;;32.58;29.25;;;;;;;9.14;87.37;101644.19;5034244;27;20410;-72
2022/03/17 05:47:37;;;;;;;35.03;30.42;;;;;;;9.14;86.85;101641.53;5038501;27;20062;-75
2022/03/17 05:50:04;;;;;;;33.50;29.90;;;;;;;9.07;88.10;101659.59;5031917;27;20040;-71
2022/03/17 05:52:30;;;;;;;34.05;30.45;;;;;;;9.01;88.98;101653.88;5014487;27;20013;-73
2022/03/17 05:54:56;;;;;;;34.88;31.27;;;;;;;8.99;88.91;101658.44;5033089;27;20009;-72
2022/03/17 05:57:21;;;;;;;35.47;31.60;;;;;;;9.00;89.39;101675.97;5036653;27;20040;-72
2022/03/17 05:59:46;;;;;;;36.90;32.25;;;;;;;9.04;88.74;101680.06;5031623;27;20035;-72
2022/03/17 06:02:12;;;;;;;36.15;32.35;;;;;;;8.95;89.08;101689.44;5038882;27;20302;-72
2022/03/17 06:04:38;;;;;;;38.75;32.97;;;;;;;8.97;89.16;101690.22;5033029;27;20013;-72
2022/03/17 06:07:04;;;;;;;36.83;33.00;;;;;;;8.94;90.08;101704.47;5000648;27;20478;-73
2022/03/17 06:09:29;;;;;;;37.80;33.65;;;;;;;8.97;90.18;101706.06;5034876;27;20028;-72
2022/03/17 06:11:55;;;;;;;36.63;32.78;;;;;;;9.01;89.30;101722.50;5051080;27;20829;-71
2022/03/17 06:14:21;;;;;;;37.95;33.47;;;;;;;8.97;89.60;101713.97;5032222;27;20339;-72
2022/03/17 06:16:47;;;;;;;38.03;34.20;;;;;;;8.97;89.28;101728.94;5016890;27;20021;-72
2022/03/17 06:19:12;;;;;;;38.35;34.22;;;;;;;8.95;89.55;101739.59;5051372;27;20096;-71
2022/03/17 06:21:37;;;;;;;39.85;34.85;;;;;;;9.07;89.64;101743.25;5051598;27;20097;-72
2022/03/17 06:24:03;;;;;;;40.05;35.08;;;;;;;9.15;90.34;101750.63;5054939;27;20008;-71
2022/03/17 06:26:28;;;;;;;36.03;31.17;;;;;;;9.12;91.44;101741.13;5032288;27;20136;-72
2022/03/17 06:28:54;;;;;;;32.97;28.17;;;;;;;9.17;92.37;101751.41;5016408;27;20029;-73
2022/03/17 06:31:19;;;;;;;30.55;26.75;;;;;;;9.21;92.68;101750.25;5017607;27;20419;-72
2022/03/17 06:33:45;;;;;;;31.90;27.27;;;;;;;9.23;93.06;101759.72;5034011;27;20016;-72
2022/03/17 06:36:11;;;;;;;26.50;23.83;;;;;;;9.26;93.50;101764.84;5037715;27;20047;-71
2022/03/17 06:38:37;;;;;;;30.23;26.08;;;;;;;9.26;94.02;101770.13;5016728;27;20295;-72
2022/03/17 06:41:02;;;;;;;26.50;23.75;;;;;;;9.24;93.72;101772.00;5016886;27;20017;-75
2022/03/17 06:43:27;;;;;;;25.05;21.67;;;;;;;9.31;93.59;101788.28;4999996;27;20017;-72
2022/03/17 06:45:53;;;;;;;23.15;20.75;;;;;;;9.22;93.42;101799.44;5031014;27;20381;-73
2022/03/17 06:48:18;;;;;;;24.92;22.20;;;;;;;9.19;93.11;101805.78;5030846;27;20024;-72
2022/03/17 06:50:44;;;;;;;24.90;22.40;;;;;;;9.25;92.12;101818.59;5032230;27;20105;-71
2022/03/17 06:53:09;;;;;;;24.98;22.33;;;;;;;9.07;92.14;101812.72;5011236;27;20577;-72
2022/03/17 06:55:34;;;;;;;28.23;24.27;;;;;;;9.11;91.98;101831.88;5011587;27;20025;-72
2022/03/17 06:58:01;;;;;;;28.02;23.27;;;;;;;9.11;92.95;101839.78;5030684;27;20086;-72
2022/03/17 07:00:26;;;;;;;26.45;22.77;;;;;;;9.06;92.08;101841.88;5029643;27;20315;-72
2022/03/17 07:02:52;;;;;;;27.80;24.25;;;;;;;8.99;92.46;101859.06;5035047;27;20328;-72
2022/03/17 07:05:17;;;;;;;30.83;24.38;;;;;;;8.98;92.56;101860.00;5004318;27;20022;-72
2022/03/17 07:07:43;;;;;;;27.70;22.60;;;;;;;8.89;92.40;101867.56;5012140;27;20005;-72
2022/03/17 07:10:09;;;;;;;27.40;23.85;;;;;;;8.90;92.72;101866.63;5027649;27;20036;-72
2022/03/17 07:12:35;;;;;;;27.77;22.88;;;;;;;8.91;91.66;101876.25;5030272;27;20997;-71
2022/03/17 07:15:00;;;;;;;26.00;22.52;;;;;;;8.84;91.84;101890.78;5011438;27;20754;-72
2022/03/17 07:17:26;;;;;;;23.52;20.95;;;;;;;8.86;91.81;101896.78;5011091;27;20033;-72
2022/03/17 07:22:26;;;;;;;21.70;19.30;;;;;;;8.82;90.56;101902.38;5009921;27;20009;-72
2022/03/17 07:24:53;;;;;;;21.25;19.00;;;;;;;8.78;91.15;101907.00;5009041;27;20025;-71
2022/03/17 07:27:21;;;;;;;19.42;16.88;;;;;;;8.83;89.82;101909.34;5011122;27;20089;-72
2022/03/17 07:29:46;;;;;;;17.13;15.30;;;;;;;8.84;88.26;101917.19;5010969;27;20229;-72
2022/03/17 07:32:12;;;;;;;16.38;14.77;;;;;;;8.76;87.69;101922.91;5026821;27;20462;-72
2022/03/17 07:34:37;;;;;;;16.45;14.40;;;;;;;8.72;87.34;101925.84;4995885;27;20024;-72
2022/03/17 07:37:03;;;;;;;16.38;14.63;;;;;;;8.75;87.56;101939.69;5033785;27;20044;-72
2022/03/17 07:39:28;;;;;;;17.35;14.82;;;;;;;8.74;87.22;101937.16;5038335;27;20028;-71
2022/03/17 07:41:53;;;;;;;15.48;13.85;;;;;;;8.69;87.31;101944.53;5045085;27;20044;-74
2022/03/17 07:44:20;;;;;;;16.20;13.57;;;;;;;8.56;86.73;101947.06;5050535;27;20024;-72
2022/03/17 07:46:45;;;;;;;17.48;13.10;;;;;;;8.59;86.53;101949.53;5050712;27;20120;-72
2022/03/17 07:49:10;;;;;;;15.13;13.35;;;;;;;8.66;86.77;101968.44;5032099;27;20032;-72
2022/03/17 07:51:37;;;;;;;13.93;12.43;;;;;;;8.65;85.21;101972.03;5049754;27;20009;-71
2022/03/17 07:54:02;;;;;;;16.90;13.05;;;;;;;8.63;86.17;101968.63;5053689;27;20024;-72
2022/03/17 07:56:27;;;;;;;13.88;11.57;;;;;;;8.57;84.56;101976.00;5013378;27;20171;-71
2022/03/17 07:58:53;;;;;;;11.95;10.82;;;;;;;8.58;83.85;101974.19;5009311;27;21114;-72
2022/03/17 08:01:18;;;;;;;12.57;11.27;;;;;;;8.67;83.51;101978.94;5010497;27;20414;-72
2022/03/17 08:03:44;;;;;;;12.43;10.77;;;;;;;8.70;82.10;101985.78;5011759;27;20024;-71
2022/03/17 08:06:10;;;;;;;14.65;11.27;;;;;;;8.66;82.33;101987.78;5029950;27;20275;-71
2022/03/17 08:08:36;;;;;;;12.60;11.13;;;;;;;8.55;81.39;101998.97;5027513;27;20340;-71
2022/03/17 08:11:01;;;;;;;14.25;11.45;;;;;;;8.53;83.48;102002.63;5008744;27;20684;-73
2022/03/17 08:13:27;;;;;;;14.52;11.93;;;;;;;8.50;83.87;102005.47;5028782;27;20093;-72
2022/03/17 08:15:53;;;;;;;16.48;12.45;;;;;;;8.51;83.21;102021.19;5013390;27;20016;-72
2022/03/17 08:18:18;;;;;;;14.43;12.27;;;;;;;8.38;83.57;102020.22;5030700;27;20333;-72
2022/03/17 08:20:43;;;;;;;12.93;11.73;;;;;;;8.42;83.14;102019.09;5035250;27;20009;-72
2022/03/17 08:23:09;;;;;;;15.43;12.38;;;;;;;8.46;83.70;102027.69;5049227;27;20028;-72
2022/03/17 08:25:35;;;;;;;18.00;12.38;;;;;;;8.42;82.91;102042.84;5017304;27;20025;-73
2022/03/17 08:28:02;;;;;;;17.65;12.10;;;;;;;8.40;82.17;102036.78;5008424;28;20024;-72
2022/03/17 08:30:32;;;;;;;12.57;11.25;;;;;;;8.38;81.94;102042.16;5005627;27;20872;-71
2022/03/17 08:32:58;;;;;;;14.07;11.43;;;;;;;8.37;82.06;102047.53;4992846;28;20466;-71
2022/03/17 08:35:23;;;;;;;13.98;11.65;;;;;;;8.38;82.68;102051.88;4992328;27;20872;-72
2022/03/17 08:37:51;;;;;;;14.18;10.77;;;;;;;8.36;82.12;102056.38;5027235;27;20021;-71
2022/03/17 08:40:16;;;;;;;14.30;11.25;;;;;;;8.45;82.09;102069.06;5030077;27;20031;-72
2022/03/17 08:42:41;;;;;;;14.13;10.48;;;;;;;8.42;81.50;102074.50;5009498;27;20912;-72
2022/03/17 08:50:37;;;;;;;12.93;9.25;;;;;;;8.67;80.06;102094.16;5025980;27;20602;-72
2022/03/17 08:53:03;;;;;;;16.13;8.68;;;;;;;8.54;79.81;102100.16;5010555;27;20029;-71
2022/03/17 08:55:28;;;;;;;13.57;7.28;;;;;;;8.57;79.51;102099.13;5028208;27;20017;-72
2022/03/17 08:57:53;;;;;;;10.90;5.70;;;;;;;8.44;77.76;102104.25;5030562;27;20539;-71
2022/03/17 09:00:19;;;;;;;5.55;5.00;;;;;;;8.41;77.74;102107.06;5026875;27;20244;-71
2022/03/17 09:02:48;;;;;;;10.63;5.40;;;;;;;8.35;76.89;102121.47;5009057;27;21102;-72
2022/03/17 09:05:14;;;;;;;6.45;4.82;;;;;;;8.40;77.65;102118.56;5010144;27;20112;-71
2022/03/17 09:07:40;;;;;;;7.72;4.82;;;;;;;8.40;75.99;102131.75;5026852;27;21000;-71
2022/03/17 09:10:05;;;;;;;6.80;4.45;;;;;;;8.39;76.43;102140.59;5005403;27;20040;-72
2022/03/17 09:12:33;;;;;;;6.38;4.28;;;;;;;8.48;75.73;102134.81;5027523;27;20013;-71
2022/03/17 09:14:58;;;;;;;6.45;4.43;;;;;;;8.53;76.00;102142.47;5028099;27;20017;-71
2022/03/17 09:17:24;;;;;;;6.10;3.90;;;;;;;8.52;74.41;102140.78;5027404;27;20023;-72
2022/03/17 09:19:49;;;;;;;5.38;3.40;;;;;;;8.63;74.72;102143.66;5009718;27;20037;-71
2022/03/17 09:22:14;;;;;;;5.75;3.60;;;;;;;8.55;75.07;102151.16;5027771;27;20021;-72
2022/03/17 09:24:40;;;;;;;5.18;3.63;;;;;;;8.61;74.74;102163.16;5030760;27;20032;-71
2022/03/17 09:27:05;;;;;;;6.55;3.20;;;;;;;8.68;73.95;102162.69;5028812;27;20025;-70
2022/03/17 09:29:31;;;;;;;3.40;2.67;;;;;;;8.81;73.70;102162.81;5029541;27;20550;-72
2022/03/17 09:31:58;;;;;;;2.83;2.58;;;;;;;8.76;72.45;102163.09;5025223;27;20028;-72
2022/03/17 09:34:24;;;;;;;4.18;2.55;;;;;;;8.82;72.20;102180.38;5011599;28;20128;-71
2022/03/17 09:36:49;;;;;;;3.03;2.53;;;;;;;8.91;72.74;102171.91;5033523;27;20515;-72
2022/03/17 09:41:59;;;;;;;2.33;2.15;;;;;;;9.11;71.96;102180.44;5027354;27;20576;-72
2022/03/17 09:44:24;;;;;;;3.08;2.13;;;;;;;9.16;70.34;102175.72;5041201;27;20853;-72
2022/03/17 09:46:49;;;;;;;5.00;2.33;;;;;;;9.21;70.47;102184.22;5030664;27;20011;-72
2022/03/17 09:49:15;;;;;;;3.97;2.13;;;;;;;9.21;69.73;102188.66;5047569;27;20027;-73
2022/03/17 09:51:44;;;;;;;3.58;2.20;;;;;;;9.13;68.80;102186.47;5028053;27;20031;-71
2022/03/17 09:54:10;;;;;;;2.50;2.30;;;;;;;9.34;69.70;102188.78;5002529;28;20086;-71
2022/03/17 09:56:35;;;;;;;3.97;1.75;;;;;;;9.24;68.19;102197.25;4990720;28;20036;-72
2022/03/17 09:59:02;;;;;;;3.22;1.80;;;;;;;9.17;68.60;102203.00;5026832;28;20033;-70
2022/03/17 10:01:28;;;;;;;3.22;1.65;;;;;;;9.10;68.79;102200.69;5025499;27;20085;-72
2022/03/17 10:04:00;;;;;;;5.18;1.80;;;;;;;9.23;69.11;102206.09;5009087;28;20013;-72
2022/03/17 10:06:26;;;;;;;4.07;1.80;;;;;;;9.33;67.77;102206.41;5009031;28;20059;-71
2022/03/17 10:08:51;;;;;;;5.70;1.92;;;;;;;9.33;69.49;102208.19;5009798;28;20444;-71
2022/03/17 10:11:30;;;;;;;2.92;1.90;;;;;;;9.34;69.44;102209.91;5024859;28;20252;-72
2022/03/17 10:13:57;;;;;;;4.00;1.92;;;;;;;9.30;69.51;102209.22;5025998;27;20114;-72
2022/03/17 10:16:23;;;;;;;4.53;1.88;;;;;;;9.43;69.10;102219.91;5011381;28;20032;-71
2022/03/17 10:18:59;;;;;;;2.38;2.10;;;;;;;9.31;68.42;102225.91;5026871;28;20056;-71
2022/03/17 10:21:25;;;;;;;3.05;2.08;;;;;;;9.25;69.66;102228.00;5044820;27;20025;-71
2022/03/17 10:23:52;;;;;;;3.38;1.90;;;;;;;9.30;69.05;102235.66;5030361;27;20020;-71
2022/03/17 10:26:40;;;;;;;2.08;1.88;;;;;;;9.35;69.34;102238.88;5012204;27;20702;-71
2022/03/17 10:29:22;;;;;;;2.83;1.75;;;;;;;9.34;69.50;102246.91;5038600;27;20068;-71
2022/03/17 10:32:00;;;;;;;4.72;1.70;;;;;;;9.31;69.70;102249.69;5001551;27;20052;-71
2022/03/17 10:34:29;;;;;;;3.67;1.88;;;;;;;9.40;68.73;102242.06;5022716;27;20022;-71
2022/03/17 10:37:24;;;;;;;2.95;1.50;;;;;;;9.43;68.34;102252.47;5006086;27;20156;-71
2022/03/17 10:39:54;;;;;;;1.88;1.50;;;;;;;9.41;66.28;102259.63;4997335;27;21040;-72
2022/03/17 10:42:29;;;;;;;1.95;1.30;;;;;;;9.54;67.39;102272.94;5009331;27;20115;-72
2022/03/17 10:44:58;;;;;;;3.65;1.40;;;;;;;9.54;66.67;102269.47;5030262;27;20746;-72
2022/03/17 10:47:28;;;;;;;2.60;1.50;;;;;;;9.60;66.88;102277.88;5014434;27;20021;-72
2022/03/17 10:56:38;;;;;;;3.50;1.60;;;;;;;9.85;66.18;102288.75;5026315;27;20959;-72
2022/03/17 10:59:04;;;;;;;3.85;1.85;;;;;;;9.93;65.88;102292.63;5014202;27;20401;-72
2022/03/17 11:01:36;;;;;;;5.13;1.70;;;;;;;9.86;66.11;102293.94;5031552;27;20094;-72
2022/03/17 11:04:02;;;;;;;2.95;1.50;;;;;;;9.84;66.41;102293.19;5034668;27;20465;-71
2022/03/17 11:06:28;;;;;;;4.30;1.50;;;;;;;9.68;66.84;102301.19;5021252;27;20020;-72
2022/03/17 11:08:54;;;;;;;4.38;1.95;;;;;;;9.73;65.99;102300.91;5040537;27;20009;-71
2022/03/17 11:11:20;;;;;;;4.50;1.95;;;;;;;9.78;65.34;102302.34;5015114;27;20017;-72
2022/03/17 11:13:46;;;;;;;3.33;1.33;;;;;;;9.77;65.18;102311.22;5035946;27;20067;-71
2022/03/17 11:16:12;;;;;;;5.88;1.80;;;;;;;9.83;65.25;102311.78;5037354;27;20507;-72
2022/03/17 11:18:38;;;;;;;4.38;1.48;;;;;;;9.84;65.88;102309.03;5017492;27;20581;-71
2022/03/17 11:21:14;;;;;;;2.03;1.40;;;;;;;9.97;65.40;102315.28;5015708;27;20031;-72
2022/03/17 11:23:55;;;;;;;3.15;1.50;;;;;;;9.97;64.59;102320.59;5016759;27;20362;-73
2022/03/17 11:26:34;;;;;;;6.75;1.83;;;;;;;9.97;64.07;102312.66;5034096;27;20033;-71
2022/03/17 11:29:26;;;;;;;7.60;1.60;;;;;;;9.80;65.00;102318.97;5035930;27;20293;-71
2022/03/17 11:31:58;;;;;;;2.58;1.40;;;;;;;9.96;64.22;102312.75;5027112;27;20049;-71
2022/03/17 11:34:38;;;;;;;2.17;1.58;;;;;;;9.96;64.89;102318.03;5037207;27;20808;-72
2022/03/17 11:37:19;;;;;;;2.75;1.40;;;;;;;9.92;65.13;102321.81;5027389;27;20018;-72
2022/03/17 11:40:04;;;;;;;2.85;1.50;;;;;;;10.08;65.35;102322.59;5032043;27;20072;-71
2022/03/17 11:42:44;;;;;;;5.65;1.70;;;;;;;10.15;64.41;102328.31;5022870;27;20025;-71